sensor_id;sensor_type;location;lat;lon;timestamp;P1;durP1;ratioP1;P2;durP2;ratioP2
7729;SDS011;3908;52.310;7.230;2023-03-14T00:00:11;9.20;;;3.20;;
7729;SDS011;3908;52.310;7.230;2023-03-14T00:02:59;10.33;;;3.30;;
7729;SDS011;3908;52.310;7.230;2023-03-14T00:05:46;4.80;;;2.63;;
7729;SDS011;3908;52.310;7.230;2023-03-14T00:08:34;6.63;;;3.27;;
7729;SDS011;3908;52.310;7.230;2023-03-14T00:11:21;7.53;;;2.83;;
7729;SDS011;3908;52.310;7.230;2023-03-14T00:14:08;11.90;;;2.67;;
7729;SDS011;3908;52.310;7.230;2023-03-14T00:16:55;6.67;;;2.60;;
7729;SDS011;3908;52.310;7.230;2023-03-14T00:19:42;6.80;;;2.73;;
7729;SDS011;3908;52.310;7.230;2023-03-14T00:22:28;9.53;;;2.93;;
7729;SDS011;3908;52.310;7.230;2023-03-14T00:25:16;6.83;;;2.30;;
7729;SDS011;3908;52.310;7.230;2023-03-14T00:28:03;11.77;;;2.93;;
7729;SDS011;3908;52.310;7.230;2023-03-14T00:30:50;5.97;;;2.33;;
7729;SDS011;3908;52.310;7.230;2023-03-14T00:33:37;10.20;;;2.90;;
7729;SDS011;3908;52.310;7.230;2023-03-14T00:36:24;6.30;;;2.60;;
7729;SDS011;3908;52.310;7.230;2023-03-14T00:39:11;5.47;;;2.30;;
7729;SDS011;3908;52.310;7.230;2023-03-14T00:41:59;5.47;;;2.57;;
7729;SDS011;3908;52.310;7.230;2023-03-14T00:44:46;6.77;;;2.10;;
7729;SDS011;3908;52.310;7.230;2023-03-14T00:47:33;8.17;;;2.73;;
7729;SDS011;3908;52.310;7.230;2023-03-14T00:50:19;7.50;;;2.60;;
7729;SDS011;3908;52.310;7.230;2023-03-14T00:53:06;8.83;;;2.80;;
7729;SDS011;3908;52.310;7.230;2023-03-14T00:55:53;7.83;;;2.73;;
7729;SDS011;3908;52.310;7.230;2023-03-14T00:58:41;3.83;;;2.30;;
7729;SDS011;3908;52.310;7.230;2023-03-14T01:01:28;11.50;;;2.63;;
7729;SDS011;3908;52.310;7.230;2023-03-14T01:04:15;8.57;;;2.40;;
7729;SDS011;3908;52.310;7.230;2023-03-14T01:07:01;7.20;;;2.97;;
7729;SDS011;3908;52.310;7.230;2023-03-14T01:09:50;8.37;;;2.40;;
7729;SDS011;3908;52.310;7.230;2023-03-14T01:12:37;5.43;;;2.40;;
7729;SDS011;3908;52.310;7.230;2023-03-14T01:15:25;8.83;;;2.60;;
7729;SDS011;3908;52.310;7.230;2023-03-14T01:18:12;8.33;;;2.67;;
7729;SDS011;3908;52.310;7.230;2023-03-14T01:20:59;5.90;;;2.10;;
7729;SDS011;3908;52.310;7.230;2023-03-14T01:23:46;6.80;;;2.60;;
7729;SDS011;3908;52.310;7.230;2023-03-14T01:26:34;6.57;;;2.60;;
7729;SDS011;3908;52.310;7.230;2023-03-14T01:29:21;5.57;;;2.40;;
7729;SDS011;3908;52.310;7.230;2023-03-14T01:32:09;14.33;;;3.00;;
7729;SDS011;3908;52.310;7.230;2023-03-14T01:34:56;7.83;;;2.60;;
7729;SDS011;3908;52.310;7.230;2023-03-14T01:37:43;9.43;;;2.70;;
7729;SDS011;3908;52.310;7.230;2023-03-14T01:40:29;4.83;;;2.53;;
7729;SDS011;3908;52.310;7.230;2023-03-14T01:43:17;9.17;;;2.33;;
7729;SDS011;3908;52.310;7.230;2023-03-14T01:48:53;6.87;;;2.10;;
7729;SDS011;3908;52.310;7.230;2023-03-14T01:51:43;6.47;;;1.97;;
7729;SDS011;3908;52.310;7.230;2023-03-14T01:54:31;10.10;;;3.10;;
7729;SDS011;3908;52.310;7.230;2023-03-14T01:57:20;8.50;;;2.40;;
7729;SDS011;3908;52.310;7.230;2023-03-14T02:00:10;6.67;;;2.40;;
7729;SDS011;3908;52.310;7.230;2023-03-14T02:02:59;3.73;;;2.33;;
7729;SDS011;3908;52.310;7.230;2023-03-14T02:05:49;13.80;;;3.37;;
7729;SDS011;3908;52.310;7.230;2023-03-14T02:08:36;7.47;;;2.40;;
7729;SDS011;3908;52.310;7.230;2023-03-14T02:11:24;5.97;;;2.30;;
7729;SDS011;3908;52.310;7.230;2023-03-14T02:14:14;6.07;;;2.50;;
7729;SDS011;3908;52.310;7.230;2023-03-14T02:17:04;6.53;;;2.47;;
7729;SDS011;3908;52.310;7.230;2023-03-14T02:20:03;4.90;;;2.23;;
7729;SDS011;3908;52.310;7.230;2023-03-14T02:22:54;5.17;;;1.77;;
7729;SDS011;3908;52.310;7.230;2023-03-14T02:25:42;8.47;;;2.40;;
7729;SDS011;3908;52.310;7.230;2023-03-14T02:28:33;7.93;;;2.73;;
7729;SDS011;3908;52.310;7.230;2023-03-14T02:31:20;7.27;;;2.97;;
7729;SDS011;3908;52.310;7.230;2023-03-14T02:34:08;8.40;;;2.07;;
7729;SDS011;3908;52.310;7.230;2023-03-14T02:36:54;5.73;;;2.70;;
7729;SDS011;3908;52.310;7.230;2023-03-14T02:39:42;11.00;;;2.70;;
7729;SDS011;3908;52.310;7.230;2023-03-14T02:42:29;5.77;;;2.83;;
7729;SDS011;3908;52.310;7.230;2023-03-14T02:45:32;7.80;;;2.60;;
7729;SDS011;3908;52.310;7.230;2023-03-14T02:48:20;5.67;;;2.37;;
7729;SDS011;3908;52.310;7.230;2023-03-14T02:51:07;3.80;;;1.80;;
7729;SDS011;3908;52.310;7.230;2023-03-14T02:53:54;9.10;;;2.27;;
7729;SDS011;3908;52.310;7.230;2023-03-14T02:56:41;6.27;;;2.40;;
7729;SDS011;3908;52.310;7.230;2023-03-14T02:59:28;7.80;;;2.57;;
7729;SDS011;3908;52.310;7.230;2023-03-14T03:02:16;9.63;;;2.20;;
7729;SDS011;3908;52.310;7.230;2023-03-14T03:05:03;10.83;;;2.27;;
7729;SDS011;3908;52.310;7.230;2023-03-14T03:07:52;4.23;;;1.60;;
7729;SDS011;3908;52.310;7.230;2023-03-14T03:10:38;8.93;;;2.73;;
7729;SDS011;3908;52.310;7.230;2023-03-14T03:13:25;7.37;;;2.17;;
7729;SDS011;3908;52.310;7.230;2023-03-14T03:16:12;2.97;;;1.57;;
7729;SDS011;3908;52.310;7.230;2023-03-14T03:19:01;12.30;;;2.57;;
7729;SDS011;3908;52.310;7.230;2023-03-14T03:21:48;6.90;;;1.90;;
7729;SDS011;3908;52.310;7.230;2023-03-14T03:24:35;6.63;;;2.53;;
7729;SDS011;3908;52.310;7.230;2023-03-14T03:27:22;8.67;;;2.20;;
7729;SDS011;3908;52.310;7.230;2023-03-14T03:30:09;7.37;;;2.10;;
7729;SDS011;3908;52.310;7.230;2023-03-14T03:32:56;7.63;;;1.80;;
7729;SDS011;3908;52.310;7.230;2023-03-14T03:35:45;2.40;;;1.93;;
7729;SDS011;3908;52.310;7.230;2023-03-14T03:38:32;6.93;;;1.70;;
7729;SDS011;3908;52.310;7.230;2023-03-14T03:41:19;10.00;;;2.63;;
7729;SDS011;3908;52.310;7.230;2023-03-14T03:44:06;7.73;;;1.93;;
7729;SDS011;3908;52.310;7.230;2023-03-14T03:46:52;5.47;;;2.23;;
7729;SDS011;3908;52.310;7.230;2023-03-14T03:49:39;7.97;;;2.27;;
7729;SDS011;3908;52.310;7.230;2023-03-14T03:52:27;8.13;;;3.30;;
7729;SDS011;3908;52.310;7.230;2023-03-14T03:55:14;9.20;;;3.93;;
7729;SDS011;3908;52.310;7.230;2023-03-14T03:58:01;9.57;;;4.50;;
7729;SDS011;3908;52.310;7.230;2023-03-14T04:00:48;12.87;;;2.97;;
7729;SDS011;3908;52.310;7.230;2023-03-14T04:03:35;7.07;;;2.47;;
7729;SDS011;3908;52.310;7.230;2023-03-14T04:06:24;7.07;;;2.77;;
7729;SDS011;3908;52.310;7.230;2023-03-14T04:09:12;14.27;;;3.77;;
7729;SDS011;3908;52.310;7.230;2023-03-14T04:11:59;11.53;;;3.27;;
7729;SDS011;3908;52.310;7.230;2023-03-14T04:14:45;6.63;;;2.47;;
7729;SDS011;3908;52.310;7.230;2023-03-14T04:17:32;3.13;;;1.90;;
7729;SDS011;3908;52.310;7.230;2023-03-14T04:20:19;8.10;;;2.53;;
7729;SDS011;3908;52.310;7.230;2023-03-14T04:23:06;7.07;;;2.30;;
7729;SDS011;3908;52.310;7.230;2023-03-14T04:25:54;7.90;;;2.20;;
7729;SDS011;3908;52.310;7.230;2023-03-14T04:28:41;6.10;;;2.10;;
7729;SDS011;3908;52.310;7.230;2023-03-14T04:31:28;7.00;;;2.30;;
7729;SDS011;3908;52.310;7.230;2023-03-14T04:34:14;4.73;;;2.00;;
7729;SDS011;3908;52.310;7.230;2023-03-14T04:37:01;4.90;;;2.00;;
7729;SDS011;3908;52.310;7.230;2023-03-14T04:39:48;11.80;;;2.63;;
7729;SDS011;3908;52.310;7.230;2023-03-14T04:42:36;6.80;;;2.00;;
7729;SDS011;3908;52.310;7.230;2023-03-14T04:45:23;4.13;;;2.17;;
7729;SDS011;3908;52.310;7.230;2023-03-14T04:48:09;5.10;;;2.17;;
7729;SDS011;3908;52.310;7.230;2023-03-14T04:50:56;7.07;;;2.27;;
7729;SDS011;3908;52.310;7.230;2023-03-14T04:53:43;5.80;;;2.43;;
7729;SDS011;3908;52.310;7.230;2023-03-14T04:56:30;7.73;;;2.50;;
7729;SDS011;3908;52.310;7.230;2023-03-14T04:59:18;4.63;;;2.17;;
7729;SDS011;3908;52.310;7.230;2023-03-14T05:02:05;7.47;;;2.10;;
7729;SDS011;3908;52.310;7.230;2023-03-14T05:04:52;8.17;;;2.70;;
7729;SDS011;3908;52.310;7.230;2023-03-14T05:07:39;6.30;;;2.33;;
7729;SDS011;3908;52.310;7.230;2023-03-14T05:10:25;7.53;;;2.10;;
7729;SDS011;3908;52.310;7.230;2023-03-14T05:13:12;7.93;;;2.47;;
7729;SDS011;3908;52.310;7.230;2023-03-14T05:16:10;8.33;;;2.30;;
7729;SDS011;3908;52.310;7.230;2023-03-14T05:18:57;7.27;;;2.10;;
7729;SDS011;3908;52.310;7.230;2023-03-14T05:25:07;8.53;;;2.20;;
7729;SDS011;3908;52.310;7.230;2023-03-14T05:27:54;9.60;;;2.07;;
7729;SDS011;3908;52.310;7.230;2023-03-14T05:30:41;9.00;;;2.40;;
7729;SDS011;3908;52.310;7.230;2023-03-14T05:33:29;9.73;;;2.13;;
7729;SDS011;3908;52.310;7.230;2023-03-14T05:36:16;9.53;;;2.63;;
7729;SDS011;3908;52.310;7.230;2023-03-14T05:39:02;6.07;;;1.80;;
7729;SDS011;3908;52.310;7.230;2023-03-14T05:41:49;13.00;;;3.33;;
7729;SDS011;3908;52.310;7.230;2023-03-14T05:44:36;9.40;;;2.80;;
7729;SDS011;3908;52.310;7.230;2023-03-14T05:47:23;12.77;;;2.60;;
7729;SDS011;3908;52.310;7.230;2023-03-14T05:50:11;9.83;;;2.53;;
7729;SDS011;3908;52.310;7.230;2023-03-14T05:52:58;9.53;;;2.60;;
7729;SDS011;3908;52.310;7.230;2023-03-14T05:55:45;10.27;;;2.33;;
7729;SDS011;3908;52.310;7.230;2023-03-14T05:58:31;7.43;;;2.20;;
7729;SDS011;3908;52.310;7.230;2023-03-14T06:01:18;6.30;;;2.00;;
7729;SDS011;3908;52.310;7.230;2023-03-14T06:04:05;5.37;;;1.90;;
7729;SDS011;3908;52.310;7.230;2023-03-14T06:06:53;9.20;;;2.80;;
7729;SDS011;3908;52.310;7.230;2023-03-14T06:09:40;6.97;;;2.10;;
7729;SDS011;3908;52.310;7.230;2023-03-14T06:12:26;3.47;;;1.70;;
7729;SDS011;3908;52.310;7.230;2023-03-14T06:15:13;7.40;;;2.53;;
7729;SDS011;3908;52.310;7.230;2023-03-14T06:18:00;8.77;;;2.17;;
7729;SDS011;3908;52.310;7.230;2023-03-14T06:20:47;9.13;;;2.40;;
7729;SDS011;3908;52.310;7.230;2023-03-14T06:23:35;9.70;;;2.10;;
7729;SDS011;3908;52.310;7.230;2023-03-14T06:26:22;14.03;;;2.43;;
7729;SDS011;3908;52.310;7.230;2023-03-14T06:29:09;9.77;;;2.53;;
7729;SDS011;3908;52.310;7.230;2023-03-14T06:31:56;7.73;;;1.97;;
7729;SDS011;3908;52.310;7.230;2023-03-14T06:34:42;5.60;;;1.77;;
7729;SDS011;3908;52.310;7.230;2023-03-14T06:37:29;8.70;;;1.90;;
7729;SDS011;3908;52.310;7.230;2023-03-14T06:40:17;7.27;;;1.93;;
7729;SDS011;3908;52.310;7.230;2023-03-14T06:43:04;3.27;;;1.60;;
7729;SDS011;3908;52.310;7.230;2023-03-14T06:45:51;9.37;;;2.17;;
7729;SDS011;3908;52.310;7.230;2023-03-14T06:48:38;9.13;;;2.03;;
7729;SDS011;3908;52.310;7.230;2023-03-14T06:51:24;4.80;;;2.20;;
7729;SDS011;3908;52.310;7.230;2023-03-14T06:54:11;8.00;;;2.03;;
7729;SDS011;3908;52.310;7.230;2023-03-14T06:56:59;4.63;;;2.10;;
7729;SDS011;3908;52.310;7.230;2023-03-14T06:59:46;6.57;;;2.00;;
7729;SDS011;3908;52.310;7.230;2023-03-14T07:02:33;6.47;;;2.20;;
7729;SDS011;3908;52.310;7.230;2023-03-14T07:05:20;6.77;;;2.10;;
7729;SDS011;3908;52.310;7.230;2023-03-14T07:08:07;7.47;;;1.97;;
7729;SDS011;3908;52.310;7.230;2023-03-14T07:10:55;4.47;;;1.57;;
7729;SDS011;3908;52.310;7.230;2023-03-14T07:13:43;6.23;;;2.00;;
7729;SDS011;3908;52.310;7.230;2023-03-14T07:16:30;5.77;;;2.03;;
7729;SDS011;3908;52.310;7.230;2023-03-14T07:19:19;4.90;;;1.87;;
7729;SDS011;3908;52.310;7.230;2023-03-14T07:22:06;4.73;;;1.70;;
7729;SDS011;3908;52.310;7.230;2023-03-14T07:24:53;4.63;;;1.67;;
7729;SDS011;3908;52.310;7.230;2023-03-14T07:27:40;1.30;;;1.20;;
7729;SDS011;3908;52.310;7.230;2023-03-14T07:30:30;4.37;;;1.73;;
7729;SDS011;3908;52.310;7.230;2023-03-14T07:33:17;4.53;;;1.80;;
7729;SDS011;3908;52.310;7.230;2023-03-14T07:36:04;6.13;;;1.60;;
7729;SDS011;3908;52.310;7.230;2023-03-14T07:38:51;3.00;;;1.47;;
7729;SDS011;3908;52.310;7.230;2023-03-14T07:41:38;4.67;;;1.57;;
7729;SDS011;3908;52.310;7.230;2023-03-14T07:44:25;3.60;;;1.73;;
7729;SDS011;3908;52.310;7.230;2023-03-14T07:47:13;3.53;;;1.40;;
7729;SDS011;3908;52.310;7.230;2023-03-14T07:50:00;4.03;;;2.00;;
7729;SDS011;3908;52.310;7.230;2023-03-14T07:52:47;4.43;;;1.93;;
7729;SDS011;3908;52.310;7.230;2023-03-14T07:55:34;4.17;;;1.50;;
7729;SDS011;3908;52.310;7.230;2023-03-14T07:58:21;2.73;;;1.57;;
7729;SDS011;3908;52.310;7.230;2023-03-14T08:01:08;3.60;;;1.80;;
7729;SDS011;3908;52.310;7.230;2023-03-14T08:03:56;5.00;;;1.50;;
7729;SDS011;3908;52.310;7.230;2023-03-14T08:06:43;4.37;;;1.90;;
7729;SDS011;3908;52.310;7.230;2023-03-14T08:09:30;2.30;;;1.70;;
7729;SDS011;3908;52.310;7.230;2023-03-14T08:12:17;3.80;;;1.87;;
7729;SDS011;3908;52.310;7.230;2023-03-14T08:15:04;4.97;;;2.00;;
7729;SDS011;3908;52.310;7.230;2023-03-14T08:17:52;4.73;;;2.23;;
7729;SDS011;3908;52.310;7.230;2023-03-14T08:20:40;3.20;;;2.03;;
7729;SDS011;3908;52.310;7.230;2023-03-14T08:23:27;3.63;;;2.10;;
7729;SDS011;3908;52.310;7.230;2023-03-14T08:26:14;2.90;;;1.77;;
7729;SDS011;3908;52.310;7.230;2023-03-14T08:29:01;4.10;;;2.30;;
7729;SDS011;3908;52.310;7.230;2023-03-14T08:31:49;3.30;;;2.00;;
7729;SDS011;3908;52.310;7.230;2023-03-14T08:34:36;2.80;;;2.17;;
7729;SDS011;3908;52.310;7.230;2023-03-14T08:37:25;4.47;;;2.27;;
7729;SDS011;3908;52.310;7.230;2023-03-14T08:40:13;7.33;;;2.30;;
7729;SDS011;3908;52.310;7.230;2023-03-14T08:43:02;4.57;;;2.70;;
7729;SDS011;3908;52.310;7.230;2023-03-14T08:45:49;7.07;;;2.70;;
7729;SDS011;3908;52.310;7.230;2023-03-14T08:48:36;1.10;;;1.00;;
7729;SDS011;3908;52.310;7.230;2023-03-14T08:51:23;2.33;;;1.00;;
7729;SDS011;3908;52.310;7.230;2023-03-14T08:54:12;1.63;;;0.87;;
7729;SDS011;3908;52.310;7.230;2023-03-14T08:56:58;2.33;;;1.00;;
7729;SDS011;3908;52.310;7.230;2023-03-14T08:59:45;1.03;;;0.80;;
7729;SDS011;3908;52.310;7.230;2023-03-14T09:02:33;1.07;;;0.97;;
7729;SDS011;3908;52.310;7.230;2023-03-14T09:05:23;1.33;;;1.07;;
7729;SDS011;3908;52.310;7.230;2023-03-14T09:08:10;2.23;;;1.10;;
7729;SDS011;3908;52.310;7.230;2023-03-14T09:10:59;0.80;;;0.80;;
7729;SDS011;3908;52.310;7.230;2023-03-14T09:13:47;1.47;;;1.00;;
7729;SDS011;3908;52.310;7.230;2023-03-14T09:16:35;1.07;;;0.97;;
7729;SDS011;3908;52.310;7.230;2023-03-14T09:19:22;2.97;;;1.20;;
7729;SDS011;3908;52.310;7.230;2023-03-14T09:22:09;3.50;;;1.40;;
7729;SDS011;3908;52.310;7.230;2023-03-14T09:24:55;3.03;;;1.00;;
7729;SDS011;3908;52.310;7.230;2023-03-14T09:27:45;2.20;;;1.07;;
7729;SDS011;3908;52.310;7.230;2023-03-14T09:30:32;2.23;;;1.00;;
7729;SDS011;3908;52.310;7.230;2023-03-14T09:33:33;4.40;;;1.30;;
7729;SDS011;3908;52.310;7.230;2023-03-14T09:36:20;1.23;;;0.90;;
7729;SDS011;3908;52.310;7.230;2023-03-14T09:39:07;4.87;;;1.10;;
7729;SDS011;3908;52.310;7.230;2023-03-14T09:41:54;1.47;;;0.90;;
7729;SDS011;3908;52.310;7.230;2023-03-14T09:44:46;1.00;;;0.90;;
7729;SDS011;3908;52.310;7.230;2023-03-14T09:47:34;2.80;;;1.07;;
7729;SDS011;3908;52.310;7.230;2023-03-14T09:50:21;1.20;;;0.90;;
7729;SDS011;3908;52.310;7.230;2023-03-14T09:53:09;2.27;;;0.80;;
7729;SDS011;3908;52.310;7.230;2023-03-14T09:55:57;2.17;;;0.97;;
7729;SDS011;3908;52.310;7.230;2023-03-14T09:58:45;1.37;;;1.10;;
7729;SDS011;3908;52.310;7.230;2023-03-14T10:01:35;2.93;;;0.83;;
7729;SDS011;3908;52.310;7.230;2023-03-14T10:04:23;1.67;;;0.97;;
7729;SDS011;3908;52.310;7.230;2023-03-14T10:07:11;3.70;;;2.87;;
7729;SDS011;3908;52.310;7.230;2023-03-14T10:10:00;1.73;;;1.00;;
7729;SDS011;3908;52.310;7.230;2023-03-14T10:12:47;1.17;;;0.90;;
7729;SDS011;3908;52.310;7.230;2023-03-14T10:15:34;1.40;;;1.23;;
7729;SDS011;3908;52.310;7.230;2023-03-14T10:18:23;1.20;;;1.10;;
7729;SDS011;3908;52.310;7.230;2023-03-14T10:21:16;1.70;;;1.10;;
7729;SDS011;3908;52.310;7.230;2023-03-14T10:24:07;2.73;;;1.03;;
7729;SDS011;3908;52.310;7.230;2023-03-14T10:26:55;2.90;;;1.20;;
7729;SDS011;3908;52.310;7.230;2023-03-14T10:29:50;3.10;;;1.10;;
7729;SDS011;3908;52.310;7.230;2023-03-14T10:32:40;3.67;;;1.47;;
7729;SDS011;3908;52.310;7.230;2023-03-14T10:35:37;2.53;;;1.47;;
7729;SDS011;3908;52.310;7.230;2023-03-14T10:38:26;2.77;;;1.67;;
7729;SDS011;3908;52.310;7.230;2023-03-14T10:41:30;2.80;;;1.30;;
7729;SDS011;3908;52.310;7.230;2023-03-14T10:44:31;4.33;;;1.60;;
7729;SDS011;3908;52.310;7.230;2023-03-14T10:47:21;3.67;;;1.23;;
7729;SDS011;3908;52.310;7.230;2023-03-14T10:50:21;4.70;;;1.70;;
7729;SDS011;3908;52.310;7.230;2023-03-14T10:53:11;2.50;;;1.30;;
7729;SDS011;3908;52.310;7.230;2023-03-14T10:55:58;3.07;;;1.23;;
7729;SDS011;3908;52.310;7.230;2023-03-14T10:58:49;2.80;;;1.50;;
7729;SDS011;3908;52.310;7.230;2023-03-14T11:01:37;5.27;;;1.60;;
7729;SDS011;3908;52.310;7.230;2023-03-14T11:04:29;5.80;;;1.77;;
7729;SDS011;3908;52.310;7.230;2023-03-14T11:07:22;3.03;;;1.30;;
7729;SDS011;3908;52.310;7.230;2023-03-14T11:10:17;4.13;;;1.30;;
7729;SDS011;3908;52.310;7.230;2023-03-14T11:13:08;12.30;;;1.97;;
7729;SDS011;3908;52.310;7.230;2023-03-14T11:16:02;6.87;;;1.70;;
7729;SDS011;3908;52.310;7.230;2023-03-14T11:19:00;10.10;;;2.37;;
7729;SDS011;3908;52.310;7.230;2023-03-14T11:21:55;8.37;;;2.47;;
7729;SDS011;3908;52.310;7.230;2023-03-14T11:24:49;9.07;;;1.90;;
7729;SDS011;3908;52.310;7.230;2023-03-14T11:27:42;14.97;;;2.80;;
7729;SDS011;3908;52.310;7.230;2023-03-14T11:30:32;6.93;;;1.50;;
7729;SDS011;3908;52.310;7.230;2023-03-14T11:33:21;6.37;;;2.00;;
7729;SDS011;3908;52.310;7.230;2023-03-14T11:36:11;9.53;;;1.70;;
7729;SDS011;3908;52.310;7.230;2023-03-14T11:38:59;15.00;;;2.07;;
7729;SDS011;3908;52.310;7.230;2023-03-14T11:41:46;6.03;;;1.80;;
7729;SDS011;3908;52.310;7.230;2023-03-14T11:44:36;4.87;;;1.93;;
7729;SDS011;3908;52.310;7.230;2023-03-14T11:47:25;12.70;;;2.00;;
7729;SDS011;3908;52.310;7.230;2023-03-14T11:50:16;10.40;;;2.30;;
7729;SDS011;3908;52.310;7.230;2023-03-14T11:53:04;12.33;;;2.13;;
7729;SDS011;3908;52.310;7.230;2023-03-14T11:55:52;12.43;;;2.23;;
7729;SDS011;3908;52.310;7.230;2023-03-14T11:58:39;10.03;;;2.47;;
7729;SDS011;3908;52.310;7.230;2023-03-14T12:01:40;16.13;;;2.97;;
7729;SDS011;3908;52.310;7.230;2023-03-14T12:04:43;12.30;;;2.23;;
7729;SDS011;3908;52.310;7.230;2023-03-14T12:07:33;14.10;;;3.00;;
7729;SDS011;3908;52.310;7.230;2023-03-14T12:10:22;12.37;;;3.27;;
7729;SDS011;3908;52.310;7.230;2023-03-14T12:13:08;15.03;;;3.10;;
7729;SDS011;3908;52.310;7.230;2023-03-14T12:15:57;20.77;;;3.20;;
7729;SDS011;3908;52.310;7.230;2023-03-14T12:18:46;17.03;;;3.40;;
7729;SDS011;3908;52.310;7.230;2023-03-14T12:21:43;12.50;;;2.67;;
7729;SDS011;3908;52.310;7.230;2023-03-14T12:24:31;13.53;;;3.17;;
7729;SDS011;3908;52.310;7.230;2023-03-14T12:30:27;13.07;;;3.63;;
7729;SDS011;3908;52.310;7.230;2023-03-14T12:36:12;14.97;;;2.87;;
7729;SDS011;3908;52.310;7.230;2023-03-14T12:42:08;13.40;;;2.27;;
7729;SDS011;3908;52.310;7.230;2023-03-14T12:45:02;13.67;;;2.87;;
7729;SDS011;3908;52.310;7.230;2023-03-14T12:48:09;14.53;;;2.50;;
7729;SDS011;3908;52.310;7.230;2023-03-14T12:51:00;13.40;;;2.70;;
7729;SDS011;3908;52.310;7.230;2023-03-14T12:54:12;16.93;;;2.43;;
7729;SDS011;3908;52.310;7.230;2023-03-14T13:00:13;11.00;;;2.50;;
7729;SDS011;3908;52.310;7.230;2023-03-14T13:03:12;10.33;;;2.90;;
7729;SDS011;3908;52.310;7.230;2023-03-14T13:06:00;9.87;;;2.33;;
7729;SDS011;3908;52.310;7.230;2023-03-14T13:08:48;13.87;;;2.50;;
7729;SDS011;3908;52.310;7.230;2023-03-14T13:11:43;10.93;;;2.13;;
7729;SDS011;3908;52.310;7.230;2023-03-14T13:14:30;7.87;;;2.10;;
7729;SDS011;3908;52.310;7.230;2023-03-14T13:17:21;9.00;;;2.17;;
7729;SDS011;3908;52.310;7.230;2023-03-14T13:20:10;12.90;;;2.13;;
7729;SDS011;3908;52.310;7.230;2023-03-14T13:22:58;6.07;;;1.67;;
7729;SDS011;3908;52.310;7.230;2023-03-14T13:25:45;5.47;;;1.70;;
7729;SDS011;3908;52.310;7.230;2023-03-14T13:28:34;13.63;;;1.90;;
7729;SDS011;3908;52.310;7.230;2023-03-14T13:31:22;7.67;;;1.80;;
7729;SDS011;3908;52.310;7.230;2023-03-14T13:34:10;5.23;;;1.70;;
7729;SDS011;3908;52.310;7.230;2023-03-14T13:36:57;8.80;;;1.80;;
7729;SDS011;3908;52.310;7.230;2023-03-14T13:39:48;8.60;;;2.17;;
7729;SDS011;3908;52.310;7.230;2023-03-14T13:46:03;8.40;;;1.97;;
7729;SDS011;3908;52.310;7.230;2023-03-14T13:48:50;6.67;;;1.43;;
7729;SDS011;3908;52.310;7.230;2023-03-14T13:51:39;5.97;;;1.50;;
7729;SDS011;3908;52.310;7.230;2023-03-14T13:54:26;3.83;;;1.30;;
7729;SDS011;3908;52.310;7.230;2023-03-14T13:57:14;6.47;;;2.07;;
7729;SDS011;3908;52.310;7.230;2023-03-14T14:00:01;4.70;;;1.40;;
7729;SDS011;3908;52.310;7.230;2023-03-14T14:02:53;4.77;;;1.67;;
7729;SDS011;3908;52.310;7.230;2023-03-14T14:05:41;5.23;;;1.53;;
7729;SDS011;3908;52.310;7.230;2023-03-14T14:08:31;9.20;;;2.07;;
7729;SDS011;3908;52.310;7.230;2023-03-14T14:11:19;7.17;;;1.77;;
7729;SDS011;3908;52.310;7.230;2023-03-14T14:14:10;5.13;;;1.40;;
7729;SDS011;3908;52.310;7.230;2023-03-14T14:16:57;7.10;;;1.40;;
7729;SDS011;3908;52.310;7.230;2023-03-14T14:19:47;4.87;;;1.67;;
7729;SDS011;3908;52.310;7.230;2023-03-14T14:22:34;4.00;;;1.50;;
7729;SDS011;3908;52.310;7.230;2023-03-14T14:25:22;1.93;;;1.30;;
7729;SDS011;3908;52.310;7.230;2023-03-14T14:28:15;4.63;;;1.50;;
7729;SDS011;3908;52.310;7.230;2023-03-14T14:31:05;7.97;;;1.57;;
7729;SDS011;3908;52.310;7.230;2023-03-14T14:33:53;7.87;;;1.80;;
7729;SDS011;3908;52.310;7.230;2023-03-14T14:36:42;5.33;;;1.60;;
7729;SDS011;3908;52.310;7.230;2023-03-14T14:39:34;7.53;;;2.13;;
7729;SDS011;3908;52.310;7.230;2023-03-14T14:42:21;5.53;;;1.60;;
7729;SDS011;3908;52.310;7.230;2023-03-14T14:45:12;9.17;;;2.10;;
7729;SDS011;3908;52.310;7.230;2023-03-14T14:48:02;5.60;;;1.60;;
7729;SDS011;3908;52.310;7.230;2023-03-14T14:50:54;6.77;;;1.73;;
7729;SDS011;3908;52.310;7.230;2023-03-14T14:53:43;7.70;;;2.00;;
7729;SDS011;3908;52.310;7.230;2023-03-14T14:56:35;8.07;;;1.80;;
7729;SDS011;3908;52.310;7.230;2023-03-14T14:59:23;9.93;;;1.80;;
7729;SDS011;3908;52.310;7.230;2023-03-14T15:02:16;8.13;;;2.37;;
7729;SDS011;3908;52.310;7.230;2023-03-14T15:05:12;6.37;;;2.10;;
7729;SDS011;3908;52.310;7.230;2023-03-14T15:07:58;8.43;;;2.00;;
7729;SDS011;3908;52.310;7.230;2023-03-14T15:10:47;8.20;;;1.80;;
7729;SDS011;3908;52.310;7.230;2023-03-14T15:13:33;6.67;;;2.20;;
7729;SDS011;3908;52.310;7.230;2023-03-14T15:16:20;7.47;;;2.13;;
7729;SDS011;3908;52.310;7.230;2023-03-14T15:19:12;6.47;;;1.83;;
7729;SDS011;3908;52.310;7.230;2023-03-14T15:21:58;4.33;;;1.70;;
7729;SDS011;3908;52.310;7.230;2023-03-14T15:24:45;4.67;;;1.30;;
7729;SDS011;3908;52.310;7.230;2023-03-14T15:27:33;5.80;;;1.40;;
7729;SDS011;3908;52.310;7.230;2023-03-14T15:30:21;5.17;;;1.57;;
7729;SDS011;3908;52.310;7.230;2023-03-14T15:33:08;10.33;;;1.67;;
7729;SDS011;3908;52.310;7.230;2023-03-14T15:35:55;2.17;;;1.20;;
7729;SDS011;3908;52.310;7.230;2023-03-14T15:38:42;5.87;;;1.47;;
7729;SDS011;3908;52.310;7.230;2023-03-14T15:41:29;2.57;;;1.50;;
7729;SDS011;3908;52.310;7.230;2023-03-14T15:44:18;5.17;;;1.57;;
7729;SDS011;3908;52.310;7.230;2023-03-14T15:47:05;7.33;;;2.17;;
7729;SDS011;3908;52.310;7.230;2023-03-14T15:49:52;7.93;;;2.10;;
7729;SDS011;3908;52.310;7.230;2023-03-14T15:52:39;2.60;;;1.60;;
7729;SDS011;3908;52.310;7.230;2023-03-14T15:55:26;6.97;;;2.00;;
7729;SDS011;3908;52.310;7.230;2023-03-14T15:58:15;8.07;;;1.70;;
7729;SDS011;3908;52.310;7.230;2023-03-14T16:01:04;5.53;;;1.53;;
7729;SDS011;3908;52.310;7.230;2023-03-14T16:03:54;3.27;;;1.17;;
7729;SDS011;3908;52.310;7.230;2023-03-14T16:06:41;5.73;;;1.30;;
7729;SDS011;3908;52.310;7.230;2023-03-14T16:09:29;3.67;;;1.23;;
7729;SDS011;3908;52.310;7.230;2023-03-14T16:12:17;6.73;;;1.77;;
7729;SDS011;3908;52.310;7.230;2023-03-14T16:15:04;4.13;;;1.50;;
7729;SDS011;3908;52.310;7.230;2023-03-14T16:17:53;4.77;;;2.20;;
7729;SDS011;3908;52.310;7.230;2023-03-14T16:20:40;16.00;;;2.10;;
7729;SDS011;3908;52.310;7.230;2023-03-14T16:23:27;7.57;;;1.90;;
7729;SDS011;3908;52.310;7.230;2023-03-14T16:26:15;5.30;;;2.17;;
7729;SDS011;3908;52.310;7.230;2023-03-14T16:29:02;14.00;;;2.33;;
7729;SDS011;3908;52.310;7.230;2023-03-14T16:31:49;3.90;;;1.90;;
7729;SDS011;3908;52.310;7.230;2023-03-14T16:34:38;7.50;;;2.20;;
7729;SDS011;3908;52.310;7.230;2023-03-14T16:37:25;6.90;;;2.10;;
7729;SDS011;3908;52.310;7.230;2023-03-14T16:40:12;5.20;;;1.50;;
7729;SDS011;3908;52.310;7.230;2023-03-14T16:42:59;2.97;;;1.57;;
7729;SDS011;3908;52.310;7.230;2023-03-14T16:45:48;6.20;;;1.90;;
7729;SDS011;3908;52.310;7.230;2023-03-14T16:48:35;5.40;;;2.10;;
7729;SDS011;3908;52.310;7.230;2023-03-14T16:51:24;3.03;;;1.77;;
7729;SDS011;3908;52.310;7.230;2023-03-14T16:54:11;6.53;;;1.73;;
7729;SDS011;3908;52.310;7.230;2023-03-14T16:56:58;6.77;;;2.10;;
7729;SDS011;3908;52.310;7.230;2023-03-14T16:59:45;4.80;;;2.10;;
7729;SDS011;3908;52.310;7.230;2023-03-14T17:02:32;5.63;;;1.73;;
7729;SDS011;3908;52.310;7.230;2023-03-14T17:05:18;4.37;;;1.60;;
7729;SDS011;3908;52.310;7.230;2023-03-14T17:08:06;2.47;;;1.47;;
7729;SDS011;3908;52.310;7.230;2023-03-14T17:10:53;5.80;;;1.50;;
7729;SDS011;3908;52.310;7.230;2023-03-14T17:13:40;7.80;;;2.03;;
7729;SDS011;3908;52.310;7.230;2023-03-14T17:16:27;9.60;;;2.27;;
7729;SDS011;3908;52.310;7.230;2023-03-14T17:19:14;6.10;;;1.73;;
7729;SDS011;3908;52.310;7.230;2023-03-14T17:22:01;8.30;;;1.90;;
7729;SDS011;3908;52.310;7.230;2023-03-14T17:24:49;8.67;;;2.00;;
7729;SDS011;3908;52.310;7.230;2023-03-14T17:27:36;16.17;;;7.17;;
7729;SDS011;3908;52.310;7.230;2023-03-14T17:30:23;7.93;;;2.20;;
7729;SDS011;3908;52.310;7.230;2023-03-14T17:33:09;4.60;;;1.80;;
7729;SDS011;3908;52.310;7.230;2023-03-14T17:35:56;5.97;;;2.20;;
7729;SDS011;3908;52.310;7.230;2023-03-14T17:38:43;12.07;;;4.73;;
7729;SDS011;3908;52.310;7.230;2023-03-14T17:41:31;7.70;;;2.53;;
7729;SDS011;3908;52.310;7.230;2023-03-14T17:44:18;5.97;;;2.10;;